Time;durP1;ratioP1;P1;durP2;ratioP2;P2;SDS_P1;SDS_P2;PMS_P1;PMS_P2;Temp;Humidity;BMP_temperature;BMP_pressure;BME280_temperature;BME280_humidity;BME280_pressure;Samples;Min_cycle;Max_cycle;Signal;HPM_P1;HPM_P2
2023/10/07 00:00:38;;;;;;;0.50;0.33;;;;;;;15.00;100.00;96216.22;5135550;27;20441;-59
2023/10/07 00:03:09;;;;;;;0.50;0.30;;;;;;;14.90;100.00;96219.72;5134850;27;20477;-59
2023/10/07 00:05:41;;;;;;;0.70;0.50;;;;;;;14.48;100.00;96224.69;5135302;27;20469;-59
2023/10/07 00:08:12;;;;;;;0.70;0.50;;;;;;;14.36;100.00;96219.66;5136136;27;20457;-59
2023/10/07 00:10:41;;;;;;;2.73;0.90;;;;;;;14.14;100.00;96141.78;5135094;27;20818;-59
2023/10/07 00:13:11;;;;;;;0.47;0.30;;;;;;;14.77;100.00;96228.34;5135249;27;20472;-59
2023/10/07 00:15:43;;;;;;;0.40;0.30;;;;;;;14.59;100.00;96226.25;5135551;27;20438;-59
2023/10/07 00:18:13;;;;;;;0.80;0.80;;;;;;;14.61;100.00;96232.13;5135460;27;20434;-59
2023/10/07 00:20:45;;;;;;;1.30;0.50;;;;;;;14.67;100.00;96222.22;5135234;27;20438;-59
2023/10/07 00:23:18;;;;;;;0.50;0.30;;;;;;;14.47;100.00;96204.44;5135384;27;20491;-59
2023/10/07 00:25:49;;;;;;;0.40;0.30;;;;;;;14.56;100.00;96216.13;5135631;27;20439;-59
2023/10/07 00:28:19;;;;;;;0.50;0.40;;;;;;;14.25;100.00;96158.56;5121242;27;20435;-59
2023/10/07 00:30:49;;;;;;;0.60;0.50;;;;;;;14.64;100.00;96215.56;5135081;27;20442;-59
2023/10/07 00:33:21;;;;;;;1.13;0.50;;;;;;;13.90;100.00;96212.75;5134533;27;20471;-59
2023/10/07 00:35:53;;;;;;;0.50;0.40;;;;;;;14.08;100.00;96217.53;5135445;27;20527;-59
2023/10/07 00:38:24;;;;;;;0.50;0.50;;;;;;;14.02;100.00;96178.63;5134956;27;20439;-59
2023/10/07 00:40:57;;;;;;;0.50;0.47;;;;;;;12.86;100.00;96063.34;5134850;27;20431;-59
2023/10/07 00:43:27;;;;;;;0.50;0.30;;;;;;;13.90;100.00;96191.44;5135790;27;20435;-59
2023/10/07 00:46:06;;;;;;;0.40;0.27;;;;;;;14.24;100.00;96204.97;5134992;27;20970;-59
2023/10/07 00:48:47;;;;;;;0.50;0.50;;;;;;;14.03;100.00;96206.88;5135432;27;20495;-59
2023/10/07 00:51:24;;;;;;;0.40;0.20;;;;;;;14.02;100.00;96192.75;5121388;27;20518;-59
2023/10/07 00:54:00;;;;;;;0.57;0.50;;;;;;;14.09;100.00;96199.69;5134503;27;20544;-59
2023/10/07 00:56:33;;;;;;;0.40;0.30;;;;;;;14.21;100.00;96201.00;5133982;27;20929;-59
2023/10/07 00:59:07;;;;;;;0.73;0.70;;;;;;;14.19;100.00;96202.34;5134975;27;20431;-59
2023/10/07 01:01:38;;;;;;;0.50;0.40;;;;;;;14.19;100.00;96203.13;5134431;27;20445;-59
2023/10/07 01:04:07;;;;;;;0.40;0.20;;;;;;;14.00;100.00;96199.41;5134618;27;20431;-59
2023/10/07 01:06:38;;;;;;;0.47;0.37;;;;;;;14.09;100.00;96199.69;5134848;27;20483;-59
2023/10/07 01:09:22;;;;;;;0.93;0.73;;;;;;;14.15;100.00;96199.38;5134126;27;20801;-58
2023/10/07 01:11:57;;;;;;;0.50;0.30;;;;;;;14.07;100.00;96201.78;5134554;27;20446;-59
2023/10/07 01:14:28;;;;;;;0.50;0.30;;;;;;;14.27;100.00;96201.78;5134500;27;20565;-59
2023/10/07 01:17:00;;;;;;;0.50;0.30;;;;;;;14.21;100.00;96189.53;5134131;27;20422;-58
2023/10/07 01:19:36;;;;;;;0.50;0.40;;;;;;;14.08;100.00;96193.53;5134467;27;20439;-59
2023/10/07 01:22:11;;;;;;;0.50;0.30;;;;;;;13.82;100.00;96191.97;5134478;27;20481;-58
2023/10/07 01:24:49;;;;;;;1.00;0.90;;;;;;;14.13;100.00;96192.72;5134009;27;20958;-58
2023/10/07 01:27:29;;;;;;;0.40;0.30;;;;;;;14.31;100.00;96194.84;5134374;27;20439;-59
2023/10/07 01:30:07;;;;;;;0.90;0.60;;;;;;;14.26;100.00;96194.84;5134222;27;20435;-58
2023/10/07 01:32:48;;;;;;;0.70;0.53;;;;;;;14.30;100.00;96193.22;5134427;27;20469;-58
2023/10/07 01:35:25;;;;;;;0.60;0.40;;;;;;;14.31;100.00;96192.19;5134398;27;20849;-58
2023/10/07 01:37:59;;;;;;;0.83;0.40;;;;;;;14.21;100.00;96178.84;5134161;27;20965;-58
2023/10/07 01:40:34;;;;;;;1.20;0.70;;;;;;;14.18;100.00;96180.19;5134022;27;20437;-58
2023/10/07 01:43:09;;;;;;;0.40;0.30;;;;;;;13.89;100.00;96169.31;5107931;27;20434;-58
2023/10/07 01:45:39;;;;;;;0.40;0.30;;;;;;;13.90;100.00;96178.91;5133681;27;20457;-58
2023/10/07 01:48:08;;;;;;;0.40;0.30;;;;;;;13.96;100.00;96174.38;5132198;27;20435;-59
2023/10/07 01:50:40;;;;;;;0.50;0.47;;;;;;;13.94;100.00;96171.97;5117741;27;20540;-58
2023/10/07 01:53:11;;;;;;;0.50;0.40;;;;;;;13.96;100.00;96171.72;5122701;27;20546;-58
2023/10/07 01:55:43;;;;;;;0.80;0.30;;;;;;;13.91;100.00;96175.16;5132627;27;20443;-58
2023/10/07 01:58:13;;;;;;;0.70;0.53;;;;;;;13.44;100.00;96184.50;5133915;27;20435;-58
2023/10/07 02:00:51;;;;;;;0.60;0.40;;;;;;;12.87;100.00;96190.78;5133841;27;20742;-59
2023/10/07 02:03:23;;;;;;;0.60;0.50;;;;;;;13.06;100.00;96191.94;5132965;27;20502;-58
2023/10/07 02:05:53;;;;;;;0.50;0.37;;;;;;;12.81;100.00;96197.16;5133287;27;20790;-59
2023/10/07 02:08:22;;;;;;;0.50;0.37;;;;;;;12.55;100.00;96150.25;5133907;27;20431;-59
2023/10/07 02:10:57;;;;;;;0.77;0.50;;;;;;;12.86;100.00;96196.34;5107099;27;20443;-59
2023/10/07 02:13:27;;;;;;;0.60;0.50;;;;;;;13.03;100.00;96199.63;5132743;27;20469;-59
2023/10/07 02:15:56;;;;;;;0.47;0.40;;;;;;;13.34;100.00;96188.78;5133274;27;20439;-60
2023/10/07 02:18:27;;;;;;;0.40;0.30;;;;;;;13.75;100.00;96197.59;5133246;27;21721;-59
2023/10/07 02:21:07;;;;;;;0.40;0.30;;;;;;;13.55;100.00;96189.59;5133236;27;20495;-59
2023/10/07 02:23:40;;;;;;;1.17;0.37;;;;;;;13.06;100.00;96201.72;5132947;27;20432;-59
2023/10/07 02:26:17;;;;;;;0.40;0.30;;;;;;;13.18;100.00;96208.44;5133019;27;20442;-59
2023/10/07 02:28:46;;;;;;;0.40;0.30;;;;;;;13.33;100.00;96186.41;5108460;27;20433;-60
2023/10/07 02:31:19;;;;;;;0.50;0.30;;;;;;;13.43;100.00;96188.25;5133030;27;20522;-59
2023/10/07 02:33:51;;;;;;;0.40;0.20;;;;;;;13.34;100.00;96212.75;5132968;27;20466;-60
2023/10/07 02:36:29;;;;;;;0.60;0.50;;;;;;;13.45;100.00;96200.25;5132442;27;21096;-60
2023/10/07 02:39:02;;;;;;;0.40;0.20;;;;;;;13.49;100.00;96198.63;5133450;27;20434;-59
2023/10/07 02:41:33;;;;;;;0.40;0.30;;;;;;;13.79;100.00;96195.97;5132126;27;20426;-60
2023/10/07 02:44:05;;;;;;;0.40;0.27;;;;;;;13.79;100.00;96198.63;5132481;27;20820;-59
2023/10/07 02:46:34;;;;;;;0.50;0.40;;;;;;;13.85;100.00;96196.78;5133022;27;20438;-59
2023/10/07 02:49:09;;;;;;;2.10;0.30;;;;;;;13.87;100.00;96173.31;5132531;27;20434;-59
2023/10/07 02:51:45;;;;;;;0.40;0.30;;;;;;;13.93;100.00;96183.72;5133277;27;20470;-60
2023/10/07 02:54:19;;;;;;;0.47;0.30;;;;;;;13.28;100.00;96127.81;5132157;27;20485;-59
2023/10/07 02:57:06;;;;;;;0.57;0.40;;;;;;;13.64;100.00;96156.00;5132435;27;20442;-60
2023/10/07 02:59:36;;;;;;;0.40;0.20;;;;;;;14.00;100.00;96197.56;5132869;27;20800;-60
2023/10/07 03:02:21;;;;;;;1.20;0.57;;;;;;;13.72;100.00;96179.47;5132206;27;20466;-60
2023/10/07 03:05:12;;;;;;;0.40;0.20;;;;;;;13.83;100.00;96199.72;5131631;27;20435;-59
2023/10/07 03:07:49;;;;;;;0.40;0.30;;;;;;;13.98;100.00;96191.69;5132758;27;20431;-59
2023/10/07 03:10:18;;;;;;;0.60;0.50;;;;;;;14.10;100.00;96190.59;5118938;27;20525;-59
2023/10/07 03:12:56;;;;;;;0.40;0.30;;;;;;;13.48;100.00;96148.31;5132554;28;20773;-59
2023/10/07 03:15:40;;;;;;;0.50;0.50;;;;;;;13.83;100.00;96162.41;5134700;27;20470;-59
2023/10/07 03:18:21;;;;;;;1.97;0.53;;;;;;;13.86;100.00;96191.16;5136586;27;20446;-60
2023/10/07 03:21:00;;;;;;;1.00;0.50;;;;;;;13.31;100.00;96201.81;5136272;27;21003;-60
2023/10/07 03:23:34;;;;;;;0.50;0.43;;;;;;;13.62;100.00;96198.13;5136296;27;20442;-59
2023/10/07 03:26:09;;;;;;;0.50;0.40;;;;;;;13.55;100.00;96186.94;5136319;27;20442;-59
2023/10/07 03:28:50;;;;;;;0.50;0.40;;;;;;;13.74;100.00;96206.63;5136005;27;20442;-59
2023/10/07 03:31:20;;;;;;;0.50;0.30;;;;;;;13.86;100.00;96211.69;5136228;27;20544;-59
2023/10/07 03:33:51;;;;;;;0.80;0.70;;;;;;;13.95;100.00;96207.41;5135485;27;20431;-59
2023/10/07 03:36:41;;;;;;;0.43;0.40;;;;;;;13.65;100.00;96176.28;5136022;27;20427;-59
2023/10/07 03:39:16;;;;;;;0.63;0.30;;;;;;;13.84;100.00;96203.97;5136484;27;20438;-59
2023/10/07 03:41:47;;;;;;;0.40;0.30;;;;;;;13.64;100.00;96201.31;5111111;27;20441;-59
2023/10/07 03:44:18;;;;;;;0.60;0.60;;;;;;;13.41;100.00;96201.81;5136053;27;20515;-58
2023/10/07 03:46:48;;;;;;;0.70;0.40;;;;;;;13.17;100.00;96211.38;5136380;27;20431;-59
2023/10/07 03:49:21;;;;;;;0.70;0.50;;;;;;;12.60;100.00;96159.03;5135992;27;20445;-59
2023/10/07 03:51:59;;;;;;;0.77;0.77;;;;;;;12.61;100.00;96205.88;5136231;27;20892;-59
2023/10/07 03:54:30;;;;;;;0.90;0.90;;;;;;;12.70;100.00;96211.47;5136198;27;20495;-58
2023/10/07 03:57:00;;;;;;;0.63;0.63;;;;;;;12.67;100.00;96212.00;5136235;27;20466;-58
2023/10/07 03:59:34;;;;;;;0.57;0.50;;;;;;;12.61;100.00;96208.53;5135866;27;20445;-58
2023/10/07 04:02:12;;;;;;;0.53;0.50;;;;;;;12.58;100.00;96213.53;5134940;27;20498;-58
2023/10/07 04:04:42;;;;;;;1.80;1.80;;;;;;;12.67;100.00;96215.44;5135429;27;20470;-58
2023/10/07 04:07:12;;;;;;;1.10;1.10;;;;;;;12.69;100.00;96218.66;5134733;27;20465;-59
2023/10/07 04:09:43;;;;;;;5.50;0.87;;;;;;;12.65;100.00;96208.78;5135654;27;20438;-59
2023/10/07 04:12:14;;;;;;;0.70;0.63;;;;;;;12.66;100.00;96216.53;5135043;27;20430;-58
2023/10/07 04:14:44;;;;;;;1.37;0.63;;;;;;;12.59;100.00;96221.28;5135760;27;21017;-59
2023/10/07 04:17:13;;;;;;;0.50;0.40;;;;;;;12.72;100.00;96223.44;5135318;27;20434;-58
2023/10/07 04:19:48;;;;;;;0.50;0.47;;;;;;;12.58;100.00;96225.00;5135470;27;20445;-58
2023/10/07 04:22:16;;;;;;;0.60;0.43;;;;;;;12.83;100.00;96212.84;5134981;27;20441;-59
2023/10/07 04:24:45;;;;;;;0.87;0.87;;;;;;;12.55;100.00;96204.22;5134913;27;20442;-58
2023/10/07 04:27:20;;;;;;;0.80;0.67;;;;;;;12.64;100.00;96213.31;5135113;27;20485;-59
2023/10/07 04:29:52;;;;;;;0.93;0.93;;;;;;;12.72;100.00;96223.44;5135145;27;20450;-60
2023/10/07 04:32:22;;;;;;;0.90;0.90;;;;;;;12.64;100.00;96218.66;5135462;27;20845;-58
2023/10/07 04:35:16;;;;;;;0.83;0.83;;;;;;;12.70;100.00;96220.25;5134436;27;20994;-60
2023/10/07 04:37:54;;;;;;;0.80;0.60;;;;;;;12.73;100.00;96222.41;5134221;27;20849;-59
2023/10/07 04:43:36;;;;;;;0.50;0.40;;;;;;;12.73;100.00;96227.72;5135433;27;20434;-59
2023/10/07 04:46:22;;;;;;;0.50;0.37;;;;;;;12.73;100.00;96229.56;5134898;27;20443;-59
2023/10/07 04:49:12;;;;;;;0.53;0.43;;;;;;;12.68;100.00;96230.34;5134639;27;20434;-59
2023/10/07 04:51:47;;;;;;;0.60;0.60;;;;;;;12.82;100.00;96228.03;5113448;27;20445;-61
2023/10/07 04:54:20;;;;;;;0.50;0.40;;;;;;;12.86;100.00;96233.59;5134138;27;20446;-65
2023/10/07 04:57:00;;;;;;;3.70;0.40;;;;;;;12.85;100.00;96234.69;5134392;27;20434;-57
2023/10/07 04:59:29;;;;;;;0.40;0.30;;;;;;;13.15;100.00;96237.47;5108389;27;20496;-54
2023/10/07 05:02:01;;;;;;;0.60;0.40;;;;;;;13.42;100.00;96247.91;5134357;27;20471;-55
2023/10/07 05:04:32;;;;;;;0.60;0.50;;;;;;;13.74;100.00;96251.13;5134319;27;20434;-55
2023/10/07 05:07:04;;;;;;;0.60;0.60;;;;;;;13.72;100.00;96250.59;5134555;27;20442;-55
2023/10/07 05:09:32;;;;;;;0.40;0.33;;;;;;;13.81;100.00;96257.00;5134121;27;20431;-54
2023/10/07 05:12:01;;;;;;;0.40;0.30;;;;;;;13.89;100.00;96261.78;5133748;27;20435;-55
2023/10/07 05:14:29;;;;;;;14.00;1.03;;;;;;;14.02;100.00;96267.38;5134286;27;20469;-55
2023/10/07 05:16:58;;;;;;;0.57;0.30;;;;;;;13.93;100.00;96262.88;5133718;27;20779;-55
2023/10/07 05:19:30;;;;;;;0.50;0.40;;;;;;;14.05;100.00;96266.06;5133765;27;20438;-54
2023/10/07 05:22:12;;;;;;;0.40;0.30;;;;;;;14.19;100.00;96261.78;5134393;27;20426;-55
2023/10/07 05:24:41;;;;;;;0.70;0.70;;;;;;;14.25;100.00;96270.56;5134199;27;20458;-54
2023/10/07 05:27:10;;;;;;;8.03;0.40;;;;;;;14.14;100.00;96266.31;5134083;27;20430;-55
2023/10/07 05:29:40;;;;;;;0.53;0.53;;;;;;;14.41;100.00;96264.19;5134017;27;20438;-53
2023/10/07 05:32:11;;;;;;;0.67;0.43;;;;;;;14.46;100.00;96256.97;5133867;27;20431;-54
2023/10/07 05:34:41;;;;;;;0.80;0.80;;;;;;;14.29;100.00;96266.31;5133576;27;20431;-55
2023/10/07 05:37:12;;;;;;;0.90;0.53;;;;;;;14.47;100.00;96273.78;5133442;27;20450;-54
2023/10/07 05:39:41;;;;;;;0.60;0.40;;;;;;;14.27;100.00;96269.22;5134022;27;20906;-54
2023/10/07 05:42:11;;;;;;;0.40;0.30;;;;;;;14.43;100.00;96260.16;5134266;27;20824;-55
2023/10/07 05:44:41;;;;;;;1.57;0.80;;;;;;;14.70;100.00;96254.47;5133476;27;20443;-54
2023/10/07 05:47:12;;;;;;;2.50;0.60;;;;;;;14.76;100.00;96261.41;5133486;27;20443;-55
2023/10/07 05:49:41;;;;;;;0.60;0.60;;;;;;;14.61;100.00;96258.78;5105883;27;20435;-55
2023/10/07 05:52:10;;;;;;;0.53;0.53;;;;;;;14.49;100.00;96276.97;5132851;27;20439;-55
2023/10/07 05:54:38;;;;;;;0.80;0.77;;;;;;;14.57;100.00;96276.44;5133560;27;20926;-56
2023/10/07 05:57:09;;;;;;;1.43;1.00;;;;;;;14.40;100.00;96284.72;5132988;27;20478;-56
2023/10/07 05:59:37;;;;;;;3.73;2.47;;;;;;;14.47;100.00;96281.78;5133584;27;20438;-56
2023/10/07 06:02:12;;;;;;;2.73;2.53;;;;;;;14.71;100.00;96285.44;5132673;27;20473;-56
2023/10/07 06:04:44;;;;;;;4.60;1.63;;;;;;;15.02;100.00;96284.28;5133429;27;20525;-57
2023/10/07 06:07:15;;;;;;;2.60;2.40;;;;;;;15.46;99.02;96275.53;5133366;27;20445;-57
2023/10/07 06:09:44;;;;;;;0.50;0.50;;;;;;;16.23;96.23;96270.16;5133537;27;20457;-57
2023/10/07 06:12:12;;;;;;;1.67;1.30;;;;;;;16.81;89.67;96232.66;5133223;27;20462;-59
2023/10/07 06:14:41;;;;;;;0.60;0.57;;;;;;;17.23;85.80;96247.94;5131945;27;20529;-60
2023/10/07 06:17:11;;;;;;;1.37;0.80;;;;;;;17.69;84.89;96265.00;5132716;27;20466;-60
2023/10/07 06:19:43;;;;;;;0.50;0.40;;;;;;;17.83;81.63;96259.69;5133013;27;20446;-60
2023/10/07 06:22:15;;;;;;;0.57;0.40;;;;;;;18.11;79.93;96267.56;5107502;27;20954;-59
2023/10/07 06:24:44;;;;;;;0.60;0.50;;;;;;;18.45;77.77;96261.88;5132702;27;20523;-60
2023/10/07 06:27:13;;;;;;;0.70;0.37;;;;;;;18.65;76.34;96264.22;5133445;27;20493;-60
2023/10/07 06:29:44;;;;;;;0.53;0.50;;;;;;;18.61;75.60;96268.59;5132349;27;20442;-59
2023/10/07 06:32:28;;;;;;;0.70;0.67;;;;;;;18.94;76.10;96259.38;5132229;27;20514;-60
2023/10/07 06:34:59;;;;;;;0.40;0.40;;;;;;;18.94;73.24;96261.25;5132287;27;20438;-59
2023/10/07 06:37:29;;;;;;;5.60;0.87;;;;;;;18.95;74.69;96260.94;5132969;27;20474;-58
2023/10/07 06:40:00;;;;;;;1.03;0.90;;;;;;;19.28;76.18;96276.94;5132802;27;20434;-59
2023/10/07 06:42:29;;;;;;;0.97;0.97;;;;;;;19.60;71.84;96261.50;5132160;27;20442;-57
2023/10/07 06:45:06;;;;;;;0.60;0.40;;;;;;;19.57;71.44;96274.75;5132448;27;21019;-59
2023/10/07 06:47:35;;;;;;;0.50;0.30;;;;;;;19.48;71.15;96274.66;5132539;27;20468;-58
2023/10/07 06:50:04;;;;;;;1.23;1.13;;;;;;;19.78;71.66;96272.41;5131873;27;20487;-59
2023/10/07 06:52:34;;;;;;;0.93;0.93;;;;;;;20.36;67.99;96277.75;5131948;27;20446;-59
2023/10/07 06:55:03;;;;;;;0.50;0.50;;;;;;;19.33;67.98;96199.69;5132749;27;20438;-59
2023/10/07 06:57:42;;;;;;;0.97;0.87;;;;;;;19.57;68.56;96282.81;5132468;27;20484;-58
2023/10/07 07:00:22;;;;;;;0.70;0.70;;;;;;;19.45;68.10;96239.53;5132320;27;20445;-58
2023/10/07 07:03:09;;;;;;;1.03;0.70;;;;;;;19.62;67.16;96242.34;5132249;27;20535;-58
2023/10/07 07:05:40;;;;;;;0.70;0.70;;;;;;;20.50;66.91;96275.78;5131462;28;20954;-58
2023/10/07 07:08:10;;;;;;;0.97;0.50;;;;;;;21.12;68.58;96276.56;5131603;28;20466;-55
2023/10/07 07:10:40;;;;;;;0.70;0.70;;;;;;;21.58;63.86;96276.06;5131075;28;20803;-55
2023/10/07 07:13:13;;;;;;;0.50;0.40;;;;;;;21.56;62.76;96272.84;5132199;27;20438;-57
2023/10/07 07:15:43;;;;;;;0.53;0.50;;;;;;;22.04;63.55;96265.44;5132781;27;20786;-57
2023/10/07 07:18:16;;;;;;;0.40;0.40;;;;;;;22.53;61.92;96258.69;5131773;28;20463;-56
2023/10/07 07:21:00;;;;;;;0.80;0.50;;;;;;;22.45;61.15;96262.22;5132417;28;20438;-56
2023/10/07 07:23:36;;;;;;;0.50;0.50;;;;;;;22.44;60.58;96266.03;5132292;28;20499;-56
2023/10/07 07:26:10;;;;;;;0.50;0.30;;;;;;;22.18;59.42;96257.97;5131902;27;20456;-56
2023/10/07 07:28:43;;;;;;;2.00;0.57;;;;;;;22.39;58.13;96210.25;5132563;28;20568;-56
2023/10/07 07:31:18;;;;;;;1.87;1.77;;;;;;;22.30;58.95;96257.31;5132113;28;20434;-57
2023/10/07 07:33:50;;;;;;;0.70;0.70;;;;;;;22.71;58.30;96252.16;5123131;27;20442;-57
2023/10/07 07:36:37;;;;;;;1.10;1.10;;;;;;;23.22;57.71;96243.81;5128555;28;20470;-56
2023/10/07 07:39:10;;;;;;;0.70;0.67;;;;;;;24.13;57.46;96242.25;5132414;27;20440;-55
2023/10/07 07:41:55;;;;;;;1.43;1.33;;;;;;;24.29;56.87;96243.19;5105923;28;20431;-56
2023/10/07 07:44:33;;;;;;;0.60;0.50;;;;;;;23.77;56.60;96235.50;5132159;27;20445;-56
2023/10/07 07:47:03;;;;;;;1.30;1.20;;;;;;;23.99;56.26;96237.88;5132108;27;20477;-56
2023/10/07 07:49:33;;;;;;;0.67;0.63;;;;;;;23.91;56.64;96244.16;5131655;28;20499;-57
2023/10/07 07:52:02;;;;;;;0.50;0.50;;;;;;;23.47;58.06;96249.44;5132051;27;20927;-57
2023/10/07 07:54:32;;;;;;;2.33;2.00;;;;;;;23.76;54.89;96242.03;5131627;28;20443;-58
2023/10/07 07:57:04;;;;;;;1.13;1.03;;;;;;;23.68;55.10;96234.78;5131570;28;20997;-58
2023/10/07 07:59:33;;;;;;;1.67;1.17;;;;;;;23.44;56.37;96234.63;5118465;27;20544;-58
2023/10/07 08:02:11;;;;;;;0.50;0.50;;;;;;;24.31;56.30;96232.84;5135143;27;20466;-57
2023/10/07 08:04:46;;;;;;;1.33;1.23;;;;;;;23.84;54.16;96227.66;5135745;27;20833;-59
2023/10/07 08:07:24;;;;;;;0.90;0.90;;;;;;;24.34;57.11;96224.00;5135417;27;20447;-59
2023/10/07 08:09:58;;;;;;;0.70;0.70;;;;;;;25.15;54.48;96216.69;5135784;27;20980;-60
2023/10/07 08:12:33;;;;;;;0.50;0.50;;;;;;;25.32;52.59;96212.97;5108853;27;20832;-60
2023/10/07 08:15:08;;;;;;;5.70;0.70;;;;;;;24.88;53.36;96217.38;5135513;27;20444;-60
2023/10/07 08:17:37;;;;;;;0.40;0.27;;;;;;;26.05;52.76;96212.78;5134979;27;20473;-60
2023/10/07 08:20:12;;;;;;;0.60;0.40;;;;;;;26.46;50.90;96207.72;5135851;27;20442;-61
2023/10/07 08:22:45;;;;;;;0.73;0.73;;;;;;;26.54;50.93;96199.75;5135376;27;20533;-61
2023/10/07 08:25:25;;;;;;;0.80;0.80;;;;;;;25.68;49.85;96207.47;5134469;27;20518;-61
2023/10/07 08:27:55;;;;;;;1.27;1.27;;;;;;;25.72;51.44;96196.72;5134687;27;20435;-62
2023/10/07 08:30:37;;;;;;;0.57;0.50;;;;;;;25.43;49.95;96203.19;5135677;27;20434;-63
2023/10/07 08:33:12;;;;;;;5.93;0.90;;;;;;;26.06;50.07;96200.78;5134252;27;20434;-58
2023/10/07 08:35:43;;;;;;;0.90;0.90;;;;;;;25.37;50.27;96203.78;5135222;27;20530;-58
2023/10/07 08:38:22;;;;;;;0.70;0.63;;;;;;;25.01;49.82;96144.94;5134244;27;20473;-58
2023/10/07 08:41:04;;;;;;;0.53;0.40;;;;;;;26.10;49.70;96201.66;5134699;27;20442;-59
2023/10/07 08:43:38;;;;;;;1.07;0.90;;;;;;;26.43;48.17;96192.13;5112284;27;20431;-59
2023/10/07 08:46:11;;;;;;;1.57;0.70;;;;;;;27.10;46.88;96172.03;5134575;27;20435;-58
2023/10/07 08:48:44;;;;;;;2.77;0.63;;;;;;;27.46;45.90;96176.38;5135103;27;20431;-58
2023/10/07 08:51:17;;;;;;;0.63;0.60;;;;;;;26.91;48.32;96173.91;5134499;27;20466;-58
2023/10/07 08:53:47;;;;;;;0.53;0.33;;;;;;;27.63;47.70;96166.97;5134218;27;20444;-58
2023/10/07 08:56:25;;;;;;;0.70;0.70;;;;;;;27.88;44.73;96164.78;5108996;27;20466;-58
2023/10/07 08:58:54;;;;;;;0.60;0.50;;;;;;;28.23;43.27;96163.53;5134206;27;20473;-58
2023/10/07 09:01:24;;;;;;;0.70;0.70;;;;;;;28.19;44.66;96159.97;5134581;27;20435;-57
2023/10/07 09:04:00;;;;;;;0.90;0.90;;;;;;;27.85;43.88;96155.41;5134016;27;20495;-57
2023/10/07 09:06:33;;;;;;;0.50;0.40;;;;;;;28.29;43.57;96151.19;5134434;27;20452;-57
2023/10/07 09:09:06;;;;;;;0.83;0.83;;;;;;;27.73;42.04;96137.25;5134207;27;20426;-57
2023/10/07 09:11:38;;;;;;;0.40;0.30;;;;;;;27.75;41.80;96076.16;5134672;27;20518;-57
2023/10/07 09:14:11;;;;;;;1.43;0.63;;;;;;;28.80;41.97;96142.72;5134739;27;20857;-57
2023/10/07 09:16:42;;;;;;;0.67;0.50;;;;;;;28.78;41.76;96139.56;5134168;27;20442;-58
2023/10/07 09:19:13;;;;;;;0.93;0.30;;;;;;;28.42;41.65;96105.44;5133910;27;20938;-58
2023/10/07 09:21:45;;;;;;;4.57;0.60;;;;;;;28.45;40.83;96145.63;5134295;27;20438;-57
2023/10/07 09:24:24;;;;;;;0.67;0.67;;;;;;;28.97;40.96;96134.00;5134144;27;20434;-57
2023/10/07 09:26:58;;;;;;;0.67;0.67;;;;;;;28.71;41.28;96123.91;5133496;27;20430;-57
2023/10/07 09:29:32;;;;;;;0.50;0.43;;;;;;;28.88;40.24;96125.31;5133859;27;20440;-57
2023/10/07 09:32:11;;;;;;;3.17;0.57;;;;;;;28.38;41.83;96118.25;5133581;27;20433;-58
2023/10/07 09:34:44;;;;;;;0.40;0.40;;;;;;;29.14;41.87;96110.88;5133367;27;20458;-57
2023/10/07 09:37:13;;;;;;;0.60;0.60;;;;;;;29.32;38.76;96117.41;5134442;27;20494;-57
2023/10/07 09:39:46;;;;;;;0.70;0.60;;;;;;;29.31;37.73;96104.91;5133766;27;20434;-58
2023/10/07 09:42:26;;;;;;;5.40;1.03;;;;;;;29.16;38.61;96057.47;5133655;27;20442;-58
2023/10/07 09:45:00;;;;;;;0.60;0.60;;;;;;;30.02;38.71;96095.63;5133862;27;20528;-58
2023/10/07 09:47:33;;;;;;;0.70;0.70;;;;;;;29.49;36.76;96100.44;5133420;27;20442;-58
2023/10/07 09:50:10;;;;;;;0.43;0.40;;;;;;;30.15;36.22;96091.47;5133326;27;20825;-58
2023/10/07 09:52:42;;;;;;;0.50;0.47;;;;;;;30.50;35.11;96082.81;5133366;27;20433;-57
2023/10/07 09:55:38;;;;;;;0.40;0.30;;;;;;;30.53;37.64;96082.84;5133197;27;20969;-59
2023/10/07 09:58:29;;;;;;;0.40;0.30;;;;;;;30.53;34.78;96076.59;5110932;27;20470;-58
2023/10/07 10:01:05;;;;;;;0.63;0.60;;;;;;;31.08;35.26;96064.47;5132875;27;20953;-58
2023/10/07 10:04:05;;;;;;;0.87;0.87;;;;;;;30.11;36.45;96071.47;5132938;27;20472;-59
2023/10/07 10:06:49;;;;;;;0.60;0.50;;;;;;;31.01;34.24;96064.44;5133353;27;20529;-59
2023/10/07 10:09:24;;;;;;;0.50;0.50;;;;;;;30.97;36.85;96017.06;5133586;27;20442;-59
2023/10/07 10:12:18;;;;;;;0.67;0.60;;;;;;;31.59;33.99;96050.66;5133227;27;20456;-60
2023/10/07 10:15:50;;;;;;;0.63;0.63;;;;;;;32.08;33.65;96049.25;5133126;27;20452;-60
2023/10/07 10:17:48;;;;;;;0.50;0.33;;;;;;;32.76;32.33;95979.44;5114095;27;21103;-60
2023/10/07 10:20:18;;;;;;;0.83;0.77;;;;;;;32.93;31.42;96026.09;5132742;27;20925;-60
2023/10/07 10:22:51;;;;;;;0.40;0.30;;;;;;;32.35;31.07;96032.00;5132717;27;20994;-60
2023/10/07 10:25:31;;;;;;;0.40;0.30;;;;;;;32.90;31.47;96026.09;5132690;27;20466;-60
2023/10/07 10:28:02;;;;;;;0.40;0.40;;;;;;;32.94;31.69;96013.91;5132669;27;20451;-60
2023/10/07 10:30:32;;;;;;;0.80;0.60;;;;;;;32.67;31.86;96012.78;5132553;27;20441;-60
2023/10/07 10:33:08;;;;;;;2.67;0.70;;;;;;;31.64;32.34;96008.38;5132857;27;20430;-60
2023/10/07 10:35:40;;;;;;;0.50;0.40;;;;;;;31.75;32.23;96003.72;5133240;27;20441;-60
2023/10/07 10:38:13;;;;;;;0.77;0.77;;;;;;;31.61;31.97;96000.91;5132238;27;20898;-60
2023/10/07 10:40:45;;;;;;;0.73;0.40;;;;;;;31.27;32.43;95992.94;5132895;27;20466;-60
2023/10/07 10:43:23;;;;;;;0.47;0.47;;;;;;;32.10;32.23;95981.84;5132735;27;20860;-60
2023/10/07 10:46:04;;;;;;;0.50;0.50;;;;;;;32.69;32.98;95976.72;5132947;27;20495;-60
2023/10/07 10:48:34;;;;;;;0.70;0.50;;;;;;;32.43;30.90;95984.19;5132316;27;20430;-60
2023/10/07 10:51:05;;;;;;;0.60;0.57;;;;;;;33.29;30.20;95966.34;5131649;27;20441;-60
2023/10/07 10:53:34;;;;;;;0.40;0.30;;;;;;;33.13;29.76;95963.25;5133321;27;20433;-61
2023/10/07 10:56:03;;;;;;;0.50;0.43;;;;;;;33.34;31.36;95954.94;5132360;27;20799;-61
2023/10/07 10:58:36;;;;;;;0.40;0.30;;;;;;;33.35;32.45;95956.47;5132938;27;20823;-57
2023/10/07 11:01:07;;;;;;;0.87;0.40;;;;;;;33.54;31.33;95930.47;5132771;27;20429;-58
2023/10/07 11:03:36;;;;;;;0.93;0.37;;;;;;;33.14;33.79;95907.16;5132089;27;20481;-58
2023/10/07 11:06:07;;;;;;;4.57;0.70;;;;;;;33.22;32.13;95936.13;5132674;28;20436;-58
2023/10/07 11:08:36;;;;;;;2.20;0.40;;;;;;;33.23;31.68;95933.00;5132268;28;20860;-58
2023/10/07 11:11:10;;;;;;;0.60;0.40;;;;;;;33.13;31.23;95928.34;5133002;27;20531;-57
2023/10/07 11:13:40;;;;;;;1.07;0.50;;;;;;;33.04;32.05;95927.22;5132032;28;20437;-58
2023/10/07 11:16:10;;;;;;;0.40;0.40;;;;;;;32.52;32.30;95926.94;5132485;28;20442;-58
2023/10/07 11:18:45;;;;;;;0.90;0.90;;;;;;;32.01;30.56;95891.72;5131484;28;20469;-59
2023/10/07 11:21:15;;;;;;;0.70;0.40;;;;;;;32.16;32.18;95916.38;5132049;28;20520;-58
2023/10/07 11:23:49;;;;;;;0.53;0.40;;;;;;;32.85;30.22;95911.94;5132001;27;20441;-58
2023/10/07 11:26:18;;;;;;;0.80;0.70;;;;;;;32.89;30.63;95903.69;5132479;27;20448;-58
2023/10/07 11:28:48;;;;;;;0.60;0.60;;;;;;;33.02;31.09;95871.84;5132704;28;20487;-58
2023/10/07 11:31:28;;;;;;;0.57;0.43;;;;;;;33.55;30.58;95888.09;5132006;28;20786;-59
2023/10/07 11:33:59;;;;;;;0.77;0.50;;;;;;;33.42;30.76;95884.97;5132454;28;20491;-59
2023/10/07 11:36:28;;;;;;;0.30;0.30;;;;;;;33.64;31.74;95869.94;5134919;27;20494;-60
2023/10/07 11:38:57;;;;;;;6.03;0.60;;;;;;;33.53;32.18;95835.44;5136698;27;20840;-59
2023/10/07 11:41:26;;;;;;;0.30;0.30;;;;;;;33.64;31.38;95850.69;5135399;27;20503;-59
2023/10/07 11:43:54;;;;;;;0.53;0.43;;;;;;;33.49;31.29;95846.47;5136463;27;20441;-60
2023/10/07 11:46:25;;;;;;;0.40;0.30;;;;;;;32.23;32.63;95870.50;5136441;27;20456;-60
2023/10/07 11:48:53;;;;;;;0.53;0.50;;;;;;;32.58;33.83;95869.69;5136550;27;20430;-60
2023/10/07 11:51:23;;;;;;;7.50;1.00;;;;;;;32.12;32.42;95861.53;5136779;27;20442;-60
2023/10/07 11:53:52;;;;;;;0.73;0.57;;;;;;;31.54;34.39;95864.69;5134707;27;21166;-60
2023/10/07 11:56:21;;;;;;;0.57;0.50;;;;;;;32.15;32.14;95866.25;5136013;27;20516;-61
2023/10/07 11:58:50;;;;;;;8.53;0.37;;;;;;;32.23;33.25;95854.06;5135425;27;20556;-60
2023/10/07 12:01:20;;;;;;;0.40;0.40;;;;;;;32.81;32.60;95850.00;5136293;27;20463;-60